createdAt,value
2022-12-28T00:01:47.153Z,4.97
2022-12-28T00:04:18.200Z,4.97
2022-12-28T00:06:50.752Z,4.99
2022-12-28T00:09:21.171Z,5.10
2022-12-28T00:11:51.568Z,5.16
2022-12-28T00:14:21.952Z,5.11
2022-12-28T00:16:54.952Z,5.15
2022-12-28T00:19:25.258Z,5.07
2022-12-28T00:21:56.906Z,5.13
2022-12-28T00:24:28.755Z,5.08
2022-12-28T00:26:59.151Z,5.10
2022-12-28T00:29:29.443Z,5.06
2022-12-28T00:32:02.467Z,5.17
2022-12-28T00:34:32.909Z,5.15
2022-12-28T00:37:08.972Z,5.19
2022-12-28T00:39:44.043Z,5.12
2022-12-28T00:42:18.375Z,5.20
2022-12-28T00:44:48.709Z,5.17
2022-12-28T00:47:22.318Z,5.10
2022-12-28T00:49:52.631Z,5.06
2022-12-28T00:52:22.976Z,5.12
2022-12-28T00:54:54.735Z,5.04
2022-12-28T00:57:25.012Z,4.95
2022-12-28T00:59:55.340Z,5.02
2022-12-28T01:02:28.282Z,5.12
2022-12-28T01:04:58.555Z,5.20
2022-12-28T01:07:28.933Z,5.19
2022-12-28T01:09:59.220Z,5.12
2022-12-28T01:12:34.599Z,5.12
2022-12-28T01:15:10.868Z,5.11
2022-12-28T01:17:43.994Z,5.17
2022-12-28T01:20:14.771Z,5.18
2022-12-28T01:22:45.188Z,5.21
2022-12-28T01:25:17.013Z,5.15
2022-12-28T01:27:47.281Z,5.09
2022-12-28T01:30:18.006Z,5.11
2022-12-28T01:32:50.986Z,5.02
2022-12-28T01:35:21.311Z,5.02
2022-12-28T01:37:51.634Z,4.93
2022-12-28T01:40:22.155Z,4.92
2022-12-28T01:42:52.493Z,4.91
2022-12-28T01:45:25.240Z,4.90
2022-12-28T01:47:59.515Z,4.90
2022-12-28T01:50:32.633Z,4.90
2022-12-28T01:53:07.435Z,4.96
2022-12-28T01:55:42.983Z,4.99
2022-12-28T01:58:17.737Z,4.99
2022-12-28T02:00:48.115Z,5.03
2022-12-28T02:03:25.194Z,4.92
2022-12-28T02:05:59.141Z,4.95
2022-12-28T02:08:37.333Z,4.90
2022-12-28T02:11:08.716Z,4.77
2022-12-28T02:13:39.258Z,4.77
2022-12-28T02:16:12.605Z,4.77
2022-12-28T02:18:49.761Z,4.83
2022-12-28T02:21:27.562Z,4.88
2022-12-28T02:24:23.286Z,4.89
2022-12-28T02:27:05.113Z,4.86
2022-12-28T02:30:03.194Z,4.96
2022-12-28T02:32:48.933Z,5.05
2022-12-28T02:35:30.559Z,5.12
2022-12-28T02:38:09.433Z,5.01
2022-12-28T02:40:46.758Z,5.04
2022-12-28T02:43:17.755Z,5.00
2022-12-28T02:46:04.411Z,5.06
2022-12-28T02:48:55.904Z,5.14
2022-12-28T02:51:56.040Z,5.16
2022-12-28T02:55:08.908Z,5.17
2022-12-28T02:57:58.846Z,5.25
2022-12-28T03:00:40.355Z,5.21
2022-12-28T03:03:25.174Z,5.26
2022-12-28T03:06:19.652Z,5.33
2022-12-28T03:09:01.340Z,5.33
2022-12-28T03:11:39.122Z,5.29
2022-12-28T03:14:16.224Z,5.31
2022-12-28T03:17:04.391Z,5.36
2022-12-28T03:19:57.498Z,5.43
2022-12-28T03:22:43.034Z,5.44
2022-12-28T03:25:32.478Z,5.39
2022-12-28T03:28:21.202Z,5.39
2022-12-28T03:31:09.089Z,5.47
2022-12-28T03:33:49.006Z,5.49
2022-12-28T03:36:31.286Z,5.58
2022-12-28T03:39:13.779Z,5.50
2022-12-28T03:41:50.909Z,5.50
2022-12-28T03:44:34.754Z,5.53
2022-12-28T03:47:12.101Z,5.56
2022-12-28T03:49:43.958Z,5.61
2022-12-28T03:52:17.119Z,5.70
2022-12-28T03:54:49.403Z,5.68
2022-12-28T03:57:20.083Z,5.74
2022-12-28T03:59:53.021Z,5.74
2022-12-28T04:02:23.499Z,5.68
2022-12-28T04:04:53.950Z,5.71
2022-12-28T04:07:26.890Z,5.79
2022-12-28T04:09:57.301Z,5.86
2022-12-28T04:12:27.724Z,5.90
2022-12-28T04:15:18.341Z,5.88
2022-12-28T04:17:48.700Z,5.86
2022-12-28T04:20:19.368Z,5.78
2022-12-28T04:22:52.477Z,5.85
2022-12-28T04:25:22.857Z,5.74
2022-12-28T04:27:53.987Z,5.71
2022-12-28T04:30:48.279Z,5.70
2022-12-28T04:33:18.640Z,5.72
2022-12-28T04:35:51.438Z,5.77
2022-12-28T04:38:24.732Z,5.88
2022-12-28T04:40:55.248Z,5.88
2022-12-28T04:43:25.649Z,5.89
2022-12-28T04:46:00.298Z,5.94
2022-12-28T04:48:31.552Z,5.90
2022-12-28T04:51:01.676Z,5.89
2022-12-28T04:53:34.655Z,5.81
2022-12-28T04:56:07.117Z,5.83
2022-12-28T04:58:37.851Z,5.86
2022-12-28T05:01:10.039Z,5.80
2022-12-28T05:03:42.562Z,5.74
2022-12-28T05:06:16.883Z,5.65
2022-12-28T05:08:50.172Z,5.64
2022-12-28T05:11:22.940Z,5.61
2022-12-28T05:13:53.975Z,5.60
2022-12-28T05:16:26.764Z,5.64
2022-12-28T05:18:58.509Z,5.69
2022-12-28T05:21:30.999Z,5.70
2022-12-28T05:24:03.960Z,5.69
2022-12-28T05:26:34.919Z,5.69
2022-12-28T05:29:05.497Z,5.66
2022-12-28T05:31:35.946Z,5.61
2022-12-28T05:34:06.530Z,5.60
2022-12-28T05:36:38.105Z,5.66
2022-12-28T05:39:11.191Z,5.63
2022-12-28T05:41:41.588Z,5.61
2022-12-28T05:44:11.897Z,5.69
2022-12-28T05:46:42.329Z,5.71
2022-12-28T05:49:13.118Z,5.80
2022-12-28T05:51:43.534Z,5.81
2022-12-28T05:54:16.533Z,5.82
2022-12-28T05:56:46.828Z,5.87
2022-12-28T05:59:17.242Z,5.84
2022-12-28T06:01:48.542Z,5.86
2022-12-28T06:04:21.948Z,5.94
2022-12-28T06:06:54.393Z,6.04
2022-12-28T06:09:27.334Z,6.02
2022-12-28T06:11:57.631Z,6.07
2022-12-28T06:14:27.893Z,6.12
2022-12-28T06:16:58.218Z,6.11
2022-12-28T06:19:28.569Z,6.22
2022-12-28T06:21:58.921Z,6.32
2022-12-28T06:24:31.822Z,6.29
2022-12-28T06:27:02.167Z,6.26
2022-12-28T06:29:32.437Z,6.27
2022-12-28T06:32:03.154Z,6.28
2022-12-28T06:34:33.574Z,6.33
2022-12-28T06:37:04.414Z,6.36
2022-12-28T06:39:37.394Z,6.42
2022-12-28T06:42:07.996Z,6.45
2022-12-28T06:44:44.364Z,6.43
2022-12-28T06:47:15.455Z,6.43
2022-12-28T06:49:45.789Z,6.48
2022-12-28T06:52:16.125Z,6.50
2022-12-28T06:54:48.988Z,6.49
2022-12-28T06:57:19.638Z,6.49
2022-12-28T06:59:50.023Z,6.47
2022-12-28T07:02:20.508Z,6.52
2022-12-28T07:04:50.990Z,6.55
2022-12-28T07:07:21.325Z,6.58
2022-12-28T07:09:54.214Z,6.61
2022-12-28T07:12:24.607Z,6.61
2022-12-28T07:14:54.941Z,6.63
2022-12-28T07:17:25.318Z,6.64
2022-12-28T07:19:55.740Z,6.68
2022-12-28T07:22:26.118Z,6.67
2022-12-28T07:24:59.014Z,6.74
2022-12-28T07:27:29.336Z,6.70
2022-12-28T07:29:59.640Z,6.68
2022-12-28T07:32:30.029Z,6.70
2022-12-28T07:35:00.337Z,6.70
2022-12-28T07:37:30.644Z,6.67
2022-12-28T07:40:03.552Z,6.67
2022-12-28T07:42:33.922Z,6.75
2022-12-28T07:45:04.257Z,6.74
2022-12-28T07:47:34.639Z,6.77
2022-12-28T07:50:05.280Z,6.77
2022-12-28T07:52:35.656Z,6.83
2022-12-28T07:55:09.386Z,6.85
2022-12-28T07:57:39.723Z,6.94
2022-12-28T08:00:12.476Z,6.96
2022-12-28T08:02:42.831Z,6.98
2022-12-28T08:05:13.294Z,7.01
2022-12-28T08:07:43.753Z,6.96
2022-12-28T08:10:16.798Z,7.04
2022-12-28T08:12:47.084Z,7.10
2022-12-28T08:15:17.521Z,7.17
2022-12-28T08:17:47.901Z,7.28
2022-12-28T08:20:18.374Z,7.42
2022-12-28T08:22:48.863Z,7.51
2022-12-28T08:25:22.037Z,7.44
2022-12-28T08:27:52.381Z,7.37
2022-12-28T08:30:22.761Z,7.45
2022-12-28T08:32:53.061Z,7.47
2022-12-28T08:35:23.488Z,7.66
2022-12-28T08:37:53.784Z,7.65
2022-12-28T08:40:30.012Z,7.82
2022-12-28T08:43:01.818Z,7.89
2022-12-28T08:45:32.329Z,7.98
2022-12-28T08:48:02.754Z,7.98
2022-12-28T08:50:33.111Z,8.20
2022-12-28T08:53:03.477Z,8.26
2022-12-28T08:55:36.409Z,8.34
2022-12-28T08:58:06.754Z,8.30
2022-12-28T09:00:37.198Z,8.32
2022-12-28T09:03:07.659Z,8.29
2022-12-28T09:05:40.582Z,8.20
2022-12-28T09:08:10.951Z,8.26
2022-12-28T09:10:43.945Z,8.22
2022-12-28T09:13:14.233Z,8.23
2022-12-28T09:15:44.569Z,8.34
2022-12-28T09:18:14.990Z,8.45
2022-12-28T09:20:48.004Z,8.57
2022-12-28T09:23:18.471Z,8.60
2022-12-28T09:25:51.453Z,8.72
2022-12-28T09:28:21.848Z,8.88
2022-12-28T09:30:52.331Z,8.86
2022-12-28T09:33:50.900Z,8.86
2022-12-28T09:36:26.029Z,8.96
2022-12-28T09:38:56.869Z,9.21
2022-12-28T09:41:35.001Z,9.39
2022-12-28T09:44:41.763Z,9.22
2022-12-28T09:47:22.862Z,9.19
2022-12-28T09:50:28.636Z,9.24
2022-12-28T09:53:23.075Z,9.36
2022-12-28T09:56:04.265Z,9.25
2022-12-28T09:58:47.905Z,9.21
2022-12-28T10:01:21.879Z,9.25
2022-12-28T10:03:52.671Z,9.21
2022-12-28T10:06:26.376Z,9.03
2022-12-28T10:08:59.838Z,9.02
2022-12-28T10:11:33.554Z,8.88
2022-12-28T10:14:21.121Z,8.91
2022-12-28T10:16:51.648Z,9.18
2022-12-28T10:19:25.960Z,9.26
2022-12-28T10:22:02.590Z,9.28
2022-12-28T10:24:33.823Z,9.51
2022-12-28T10:27:08.639Z,9.39
2022-12-28T10:29:41.560Z,9.57
2022-12-28T10:32:13.039Z,9.56
2022-12-28T10:34:59.033Z,9.64
2022-12-28T10:37:32.730Z,9.85
2022-12-28T10:40:06.648Z,10.16
2022-12-28T10:42:42.939Z,10.45
2022-12-28T10:45:26.062Z,10.39
2022-12-28T10:47:58.678Z,10.37
2022-12-28T10:50:47.763Z,10.64
2022-12-28T10:53:28.425Z,10.50
2022-12-28T10:56:09.932Z,10.46
2022-12-28T10:58:40.568Z,10.63
2022-12-28T11:01:22.592Z,10.96
2022-12-28T11:04:08.215Z,11.14
2022-12-28T11:06:40.063Z,10.80
2022-12-28T11:09:20.641Z,10.72
2022-12-28T11:11:53.165Z,10.90
2022-12-28T11:14:33.702Z,11.17
2022-12-28T11:17:19.460Z,11.37
2022-12-28T11:19:58.132Z,11.42
2022-12-28T11:22:32.054Z,11.31
2022-12-28T11:25:04.014Z,11.13
2022-12-28T11:27:34.496Z,10.71
2022-12-28T11:30:06.562Z,10.35
2022-12-28T11:32:49.759Z,9.99
2022-12-28T11:35:22.707Z,9.83
2022-12-28T11:37:55.640Z,9.65
2022-12-28T11:40:55.341Z,9.42
2022-12-28T11:43:54.098Z,9.31
2022-12-28T11:46:46.177Z,9.24
2022-12-28T11:49:38.785Z,9.27
2022-12-28T11:52:48.251Z,9.20
2022-12-28T11:56:09.281Z,9.17
2022-12-28T11:59:24.628Z,9.30
2022-12-28T12:02:06.245Z,9.30
2022-12-28T12:04:46.407Z,9.28
2022-12-28T12:07:30.666Z,9.39
2022-12-28T12:10:34.016Z,9.51
2022-12-28T12:13:50.490Z,9.45
2022-12-28T12:16:28.005Z,9.57
2022-12-28T12:19:01.563Z,9.74
2022-12-28T12:21:39.926Z,10.07
2022-12-28T12:24:27.286Z,10.12
2022-12-28T12:27:06.033Z,10.90
2022-12-28T12:29:44.237Z,11.66
2022-12-28T12:32:24.511Z,12.18
2022-12-28T12:34:58.516Z,12.67
2022-12-28T12:37:48.417Z,12.51
2022-12-28T12:40:52.116Z,13.05
2022-12-28T12:43:33.775Z,12.61
2022-12-28T12:46:36.149Z,13.04
2022-12-28T12:49:36.733Z,12.69
2022-12-28T12:52:25.822Z,12.08
2022-12-28T12:55:17.621Z,11.61
2022-12-28T12:58:00.905Z,11.67
2022-12-28T13:00:48.684Z,11.71
2022-12-28T13:03:30.501Z,12.18
2022-12-28T13:06:02.069Z,13.59
2022-12-28T13:08:39.624Z,14.55
2022-12-28T13:11:16.456Z,14.77
2022-12-28T13:13:51.067Z,14.61
2022-12-28T13:16:25.203Z,14.89
2022-12-28T13:19:00.759Z,14.76
2022-12-28T13:21:43.180Z,14.42
2022-12-28T13:24:23.924Z,13.80
2022-12-28T13:26:58.461Z,13.15
2022-12-28T13:29:31.710Z,12.53
2022-12-28T13:32:02.200Z,12.17
2022-12-28T13:34:35.360Z,11.69
2022-12-28T13:37:18.039Z,11.13
2022-12-28T13:39:48.620Z,10.86
2022-12-28T13:42:30.268Z,10.86
2022-12-28T13:45:03.215Z,11.07
2022-12-28T13:47:37.783Z,10.80
2022-12-28T13:50:16.312Z,10.72
2022-12-28T13:52:52.621Z,10.48
2022-12-28T13:55:27.557Z,10.36
2022-12-28T13:58:07.081Z,10.18
2022-12-28T14:00:39.899Z,10.13
2022-12-28T14:03:14.786Z,10.15
2022-12-28T14:05:47.639Z,10.14
2022-12-28T14:08:19.956Z,9.90
2022-12-28T14:10:51.121Z,9.86
2022-12-28T14:13:24.941Z,9.76
2022-12-28T14:15:57.552Z,9.72
2022-12-28T14:18:30.231Z,9.62
2022-12-28T14:21:02.043Z,9.63
2022-12-28T14:23:35.521Z,9.49
2022-12-28T14:26:09.589Z,9.49
2022-12-28T14:28:46.861Z,9.41
2022-12-28T14:31:24.979Z,9.40
2022-12-28T14:33:58.658Z,9.36
2022-12-28T14:36:34.108Z,9.37
2022-12-28T14:39:06.733Z,9.29
2022-12-28T14:41:41.946Z,9.28
2022-12-28T14:44:30.745Z,9.27
2022-12-28T14:47:02.116Z,9.18
2022-12-28T14:49:42.907Z,9.32
2022-12-28T14:52:39.984Z,9.47
2022-12-28T14:55:38.342Z,9.61
2022-12-28T14:58:18.908Z,9.73
2022-12-28T15:01:02.474Z,9.80
2022-12-28T15:03:34.257Z,9.74
2022-12-28T15:06:04.815Z,9.69
2022-12-28T15:08:35.255Z,9.59
2022-12-28T15:11:06.634Z,9.57
2022-12-28T15:13:37.305Z,9.56
2022-12-28T15:16:14.492Z,9.53
2022-12-28T15:18:46.001Z,9.46
2022-12-28T15:21:19.937Z,9.44
2022-12-28T15:23:52.857Z,9.39
2022-12-28T15:26:27.644Z,9.43
2022-12-28T15:28:58.142Z,9.37
2022-12-28T15:31:31.140Z,9.34
2022-12-28T15:34:01.547Z,9.34
2022-12-28T15:36:31.896Z,9.37
2022-12-28T15:39:02.684Z,9.38
2022-12-28T15:41:45.453Z,9.41
2022-12-28T15:44:16.368Z,9.45
2022-12-28T15:46:50.288Z,9.49
2022-12-28T15:49:21.430Z,9.50
2022-12-28T15:51:51.515Z,9.47
2022-12-28T15:54:21.820Z,9.46
2022-12-28T15:56:57.950Z,9.40
2022-12-28T15:59:28.311Z,9.40
2022-12-28T16:02:01.465Z,9.42
2022-12-28T16:04:33.865Z,9.45
2022-12-28T16:07:04.288Z,9.49
2022-12-28T16:09:34.685Z,9.49
2022-12-28T16:12:05.528Z,9.51
2022-12-28T16:14:35.953Z,9.49
2022-12-28T16:17:08.935Z,9.51
2022-12-28T16:19:39.302Z,9.51
2022-12-28T16:22:10.052Z,9.49
2022-12-28T16:24:40.437Z,9.50
2022-12-28T16:27:10.837Z,9.51
2022-12-28T16:29:41.190Z,9.49
2022-12-28T16:32:14.393Z,9.42
2022-12-28T16:34:44.935Z,9.39
2022-12-28T16:37:15.305Z,9.46
2022-12-28T16:39:47.023Z,9.42
2022-12-28T16:42:17.344Z,9.43
2022-12-28T16:44:48.108Z,9.49
2022-12-28T16:47:21.159Z,9.59
2022-12-28T16:49:51.467Z,9.59
2022-12-28T16:52:23.373Z,9.54
2022-12-28T16:54:53.683Z,9.51
2022-12-28T16:57:24.052Z,9.47
2022-12-28T16:59:54.363Z,9.54
2022-12-28T17:02:27.583Z,9.53
2022-12-28T17:04:58.148Z,9.52
2022-12-28T17:07:28.505Z,9.51
2022-12-28T17:09:58.853Z,9.49
2022-12-28T17:12:29.467Z,9.50
2022-12-28T17:15:04.872Z,9.54
2022-12-28T17:17:38.281Z,9.52
2022-12-28T17:20:10.376Z,9.51
2022-12-28T17:22:40.790Z,9.62
2022-12-28T17:25:11.919Z,9.58
2022-12-28T17:27:41.981Z,9.53
2022-12-28T17:30:13.844Z,9.51
2022-12-28T17:32:46.862Z,9.49
2022-12-28T17:35:17.803Z,9.55
2022-12-28T17:37:48.204Z,9.52
2022-12-28T17:40:19.826Z,9.50
2022-12-28T17:42:50.242Z,9.52
2022-12-28T17:45:20.971Z,9.68
2022-12-28T17:47:54.040Z,9.69
2022-12-28T17:50:24.435Z,9.64
2022-12-28T17:52:54.857Z,9.66
2022-12-28T17:55:25.207Z,9.62
2022-12-28T17:57:55.582Z,9.60
2022-12-28T18:00:26.401Z,9.65
2022-12-28T18:02:59.559Z,9.69
2022-12-28T18:05:29.950Z,9.69
2022-12-28T18:08:00.358Z,9.69
2022-12-28T18:10:30.679Z,9.69
2022-12-28T18:13:01.098Z,9.65
2022-12-28T18:15:33.159Z,9.63
2022-12-28T18:18:07.022Z,9.73
2022-12-28T18:20:37.341Z,9.69
2022-12-28T18:23:07.676Z,9.72
2022-12-28T18:25:38.118Z,9.72
2022-12-28T18:28:08.750Z,9.73
2022-12-28T18:30:39.304Z,9.69
2022-12-28T18:33:12.409Z,9.71
2022-12-28T18:35:42.695Z,9.65
2022-12-28T18:38:13.030Z,9.67
2022-12-28T18:40:43.435Z,9.57
2022-12-28T18:43:13.777Z,9.55
2022-12-28T18:45:44.831Z,9.62
2022-12-28T18:48:17.795Z,9.62
2022-12-28T18:50:56.216Z,9.56
2022-12-28T18:53:28.213Z,9.58
2022-12-28T18:56:02.854Z,9.62
2022-12-28T18:58:36.131Z,9.66
2022-12-28T19:01:08.089Z,9.70
2022-12-28T19:03:41.715Z,9.74
2022-12-28T19:06:12.998Z,9.76
2022-12-28T19:08:43.891Z,9.77
2022-12-28T19:11:15.078Z,9.78
2022-12-28T19:13:45.272Z,9.80
2022-12-28T19:16:25.699Z,9.75
2022-12-28T19:19:03.910Z,9.69
2022-12-28T19:21:38.810Z,9.74
2022-12-28T19:24:15.548Z,9.73
2022-12-28T19:26:48.305Z,9.67
2022-12-28T19:29:19.140Z,9.58
2022-12-28T19:31:49.638Z,9.59
2022-12-28T19:34:22.649Z,9.61
2022-12-28T19:36:53.048Z,9.63
2022-12-28T19:39:23.424Z,9.65
2022-12-28T19:41:53.788Z,9.58
2022-12-28T19:44:24.450Z,9.56
2022-12-28T19:46:55.461Z,9.58
2022-12-28T19:49:28.656Z,9.62
2022-12-28T19:51:58.976Z,9.62
2022-12-28T19:54:29.218Z,9.61
2022-12-28T19:56:59.512Z,9.57
2022-12-28T19:59:30.215Z,9.62
2022-12-28T20:02:01.368Z,9.64
2022-12-28T20:04:34.663Z,9.69
2022-12-28T20:07:05.041Z,9.67
2022-12-28T20:09:35.375Z,9.73
2022-12-28T20:12:05.616Z,9.65
2022-12-28T20:14:36.020Z,9.64
2022-12-28T20:17:06.481Z,9.72
2022-12-28T20:19:39.717Z,9.72
2022-12-28T20:22:10.083Z,9.75
2022-12-28T20:24:40.420Z,9.63
2022-12-28T20:27:10.784Z,9.73
2022-12-28T20:29:41.329Z,9.73
2022-12-28T20:32:11.721Z,9.84
2022-12-28T20:34:44.672Z,9.91
2022-12-28T20:37:15.116Z,9.91
2022-12-28T20:39:45.463Z,9.89
2022-12-28T20:42:29.813Z,9.86
2022-12-28T20:45:00.975Z,9.94
2022-12-28T20:47:31.042Z,9.93
2022-12-28T20:50:04.077Z,10.01
2022-12-28T20:52:34.327Z,10.05
2022-12-28T20:55:04.635Z,10.07
2022-12-28T20:57:34.974Z,10.12
2022-12-28T21:00:05.443Z,10.17
2022-12-28T21:02:35.764Z,10.15
2022-12-28T21:05:10.175Z,10.09
2022-12-28T21:07:40.581Z,10.15
2022-12-28T21:10:12.189Z,10.18
2022-12-28T21:12:42.530Z,10.18
2022-12-28T21:15:13.758Z,10.21
2022-12-28T21:17:44.074Z,10.26
2022-12-28T21:20:17.461Z,10.25
2022-12-28T21:22:47.724Z,10.23
2022-12-28T21:25:18.254Z,10.18
2022-12-28T21:27:48.612Z,10.16
2022-12-28T21:30:19.380Z,10.15
2022-12-28T21:32:54.073Z,10.17
2022-12-28T21:35:33.692Z,10.14
2022-12-28T21:38:04.579Z,10.11
2022-12-28T21:40:34.982Z,10.06
2022-12-28T21:43:05.318Z,10.11
2022-12-28T21:45:35.893Z,10.07
2022-12-28T21:48:06.923Z,10.13
2022-12-28T21:50:39.931Z,10.09
2022-12-28T21:53:10.253Z,10.05
2022-12-28T21:55:46.599Z,10.04
2022-12-28T21:58:17.032Z,10.09
2022-12-28T22:01:00.045Z,10.01
2022-12-28T22:03:42.779Z,10.01
2022-12-28T22:06:15.760Z,9.99
2022-12-28T22:08:58.450Z,9.99
2022-12-28T22:11:41.280Z,9.95
2022-12-28T22:14:11.875Z,9.94
2022-12-28T22:16:42.315Z,9.79
2022-12-28T22:19:12.725Z,9.78
2022-12-28T22:21:45.733Z,9.79
2022-12-28T22:24:16.093Z,9.84
2022-12-28T22:26:46.449Z,9.82
2022-12-28T22:29:16.974Z,9.83
2022-12-28T22:31:47.408Z,9.85
2022-12-28T22:34:17.879Z,9.80
2022-12-28T22:36:50.873Z,9.82
2022-12-28T22:39:21.225Z,9.74
2022-12-28T22:41:51.638Z,9.75
2022-12-28T22:44:22.048Z,9.78
2022-12-28T22:46:52.466Z,9.76
2022-12-28T22:49:23.078Z,9.74
2022-12-28T22:51:56.056Z,9.72
2022-12-28T22:54:26.357Z,9.77
2022-12-28T22:56:56.838Z,9.80
2022-12-28T22:59:27.339Z,9.79
2022-12-28T23:01:57.868Z,9.85
2022-12-28T23:04:28.419Z,9.84
2022-12-28T23:07:04.007Z,9.89
2022-12-28T23:09:35.470Z,9.86
2022-12-28T23:12:05.739Z,9.85
2022-12-28T23:14:48.443Z,9.85
2022-12-28T23:17:19.884Z,9.95
2022-12-28T23:20:02.649Z,9.95
2022-12-28T23:22:50.078Z,10.03
2022-12-28T23:25:35.791Z,10.03
2022-12-28T23:28:09.337Z,10.07
2022-12-28T23:30:41.726Z,10.08
2022-12-28T23:33:13.175Z,10.10
2022-12-28T23:35:43.615Z,10.08
2022-12-28T23:38:16.646Z,10.16
2022-12-28T23:41:07.235Z,10.22
2022-12-28T23:43:37.692Z,10.23
2022-12-28T23:46:08.697Z,10.22
2022-12-28T23:48:39.106Z,10.23
2022-12-28T23:51:11.244Z,10.29
2022-12-28T23:53:44.920Z,10.38
2022-12-28T23:56:15.293Z,10.37
2022-12-28T23:58:45.737Z,10.37
